createdAt,value
2023-03-24T00:01:53.519Z,97920.88
2023-03-24T00:04:20.443Z,97918.53
2023-03-24T00:06:49.395Z,97918.28
2023-03-24T00:09:16.827Z,97917.50
2023-03-24T00:11:44.225Z,97915.25
2023-03-24T00:14:12.736Z,97906.00
2023-03-24T00:16:42.863Z,97907.78
2023-03-24T00:19:11.526Z,97912.03
2023-03-24T00:21:38.205Z,97913.63
2023-03-24T00:24:07.632Z,97912.25
2023-03-24T00:26:37.590Z,97910.44
2023-03-24T00:29:07.109Z,97905.13
2023-03-24T00:31:34.249Z,97906.97
2023-03-24T00:34:02.860Z,97904.00
2023-03-24T00:36:29.650Z,97900.44
2023-03-24T00:38:58.029Z,97893.88
2023-03-24T00:41:27.064Z,97897.22
2023-03-24T00:43:59.511Z,97894.72
2023-03-24T00:46:28.483Z,97895.34
2023-03-24T00:49:02.371Z,97898.25
2023-03-24T00:51:31.685Z,97900.88
2023-03-24T00:53:59.368Z,97895.25
2023-03-24T00:56:27.532Z,97894.78
2023-03-24T00:58:57.766Z,97888.63
2023-03-24T01:01:30.249Z,97886.38
2023-03-24T01:03:57.013Z,97893.88
2023-03-24T01:06:24.593Z,97889.81
2023-03-24T01:08:53.882Z,97874.94
2023-03-24T01:11:24.325Z,97870.69
2023-03-24T01:13:52.446Z,97867.09
2023-03-24T01:16:19.660Z,97867.97
2023-03-24T01:18:46.347Z,97873.50
2023-03-24T01:21:13.276Z,97865.56
2023-03-24T01:23:42.031Z,97868.38
2023-03-24T01:26:11.028Z,97857.84
2023-03-24T01:28:41.078Z,97847.25
2023-03-24T01:31:09.950Z,97850.69
2023-03-24T01:33:38.052Z,97850.06
2023-03-24T01:36:06.740Z,97845.00
2023-03-24T01:38:33.957Z,97841.53
2023-03-24T01:41:05.723Z,97841.59
2023-03-24T01:43:34.708Z,97834.06
2023-03-24T01:46:05.643Z,97830.59
2023-03-24T01:48:52.445Z,97830.38
2023-03-24T01:51:23.581Z,97824.59
2023-03-24T01:53:55.981Z,97818.97
2023-03-24T01:56:24.271Z,97828.78
2023-03-24T01:58:56.603Z,97819.78
2023-03-24T02:01:26.506Z,97825.31
2023-03-24T02:03:53.281Z,97823.94
2023-03-24T02:06:23.348Z,97812.53
2023-03-24T02:08:55.985Z,97799.78
2023-03-24T02:11:25.222Z,97797.94
2023-03-24T02:13:51.923Z,97797.16
2023-03-24T02:16:33.888Z,97781.50
2023-03-24T02:19:38.225Z,97784.31
2023-03-24T02:22:36.645Z,97780.84
2023-03-24T02:25:03.264Z,97773.72
2023-03-24T02:27:44.341Z,97771.28
2023-03-24T02:30:41.697Z,97763.91
2023-03-24T02:33:23.372Z,97758.28
2023-03-24T02:35:50.109Z,97750.91
2023-03-24T02:38:47.283Z,97745.28
2023-03-24T02:41:33.383Z,97746.97
2023-03-24T02:44:25.907Z,97741.69
2023-03-24T02:47:01.513Z,97747.44
2023-03-24T02:49:32.149Z,97750.72
2023-03-24T02:52:08.017Z,97746.16
2023-03-24T02:54:48.882Z,97746.16
2023-03-24T02:57:25.509Z,97738.78
2023-03-24T03:00:10.198Z,97742.06
2023-03-24T03:02:45.454Z,97729.03
2023-03-24T03:05:20.363Z,97730.81
2023-03-24T03:07:49.049Z,97729.88
2023-03-24T03:10:22.788Z,97724.81
2023-03-24T03:12:55.345Z,97722.16
2023-03-24T03:15:27.797Z,97730.19
2023-03-24T03:18:03.676Z,97734.34
2023-03-24T03:20:38.231Z,97723.59
2023-03-24T03:23:10.331Z,97725.66
2023-03-24T03:25:46.349Z,97711.88
2023-03-24T03:28:18.060Z,97712.44
2023-03-24T03:30:51.071Z,97712.69
2023-03-24T03:33:26.135Z,97709.59
2023-03-24T03:36:14.304Z,97706.41
2023-03-24T03:39:09.651Z,97702.00
2023-03-24T03:41:38.319Z,97709.59
2023-03-24T03:44:05.414Z,97710.19
2023-03-24T03:46:32.324Z,97702.25
2023-03-24T03:48:58.983Z,97704.09
2023-03-24T03:51:26.420Z,97703.28
2023-03-24T03:53:58.976Z,97712.84
2023-03-24T03:56:28.394Z,97709.25
2023-03-24T03:58:55.111Z,97713.47
2023-03-24T04:01:25.559Z,97719.09
2023-03-24T04:04:11.446Z,97709.31
2023-03-24T04:07:08.093Z,97707.47
2023-03-24T04:09:54.740Z,97704.59
2023-03-24T04:12:36.100Z,97702.03
2023-03-24T04:15:28.163Z,97706.13
2023-03-24T04:18:04.621Z,97701.72
2023-03-24T04:20:50.787Z,97700.44
2023-03-24T04:23:39.801Z,97705.97
2023-03-24T04:26:26.678Z,97697.78
2023-03-24T04:29:17.907Z,97699.69
2023-03-24T04:31:53.890Z,97697.28
2023-03-24T04:34:28.846Z,97696.50
2023-03-24T04:37:04.182Z,97693.59
2023-03-24T04:39:36.019Z,97694.38
2023-03-24T04:42:07.941Z,97684.63
2023-03-24T04:44:34.791Z,97688.06
2023-03-24T04:47:03.182Z,97688.97
2023-03-24T04:49:29.855Z,97689.91
2023-03-24T04:51:56.686Z,97687.34
2023-03-24T04:54:24.014Z,97695.84
2023-03-24T04:56:53.583Z,97693.19
2023-03-24T04:59:21.318Z,97679.38
2023-03-24T05:01:51.876Z,97674.16
2023-03-24T05:04:21.093Z,97682.69
2023-03-24T05:06:49.671Z,97678.50
2023-03-24T05:09:21.815Z,97683.56
2023-03-24T05:11:49.009Z,97687.00
2023-03-24T05:14:16.537Z,97683.00
2023-03-24T05:16:43.379Z,97684.59
2023-03-24T05:19:11.128Z,97691.00
2023-03-24T05:21:38.212Z,97692.16
2023-03-24T05:24:05.249Z,97692.16
2023-03-24T05:26:33.346Z,97701.38
2023-03-24T05:29:00.514Z,97701.13
2023-03-24T05:31:27.629Z,97704.56
2023-03-24T05:33:54.412Z,97706.50
2023-03-24T05:36:21.297Z,97701.13
2023-03-24T05:38:47.928Z,97704.56
2023-03-24T05:41:14.636Z,97698.81
2023-03-24T05:43:41.228Z,97704.31
2023-03-24T05:46:08.151Z,97716.50
2023-03-24T05:48:34.945Z,97721.03
2023-03-24T05:51:01.913Z,97727.94
2023-03-24T05:53:28.568Z,97721.25
2023-03-24T05:55:55.195Z,97727.94
2023-03-24T05:58:21.815Z,97726.41
2023-03-24T06:00:48.697Z,97727.53
2023-03-24T06:03:17.359Z,97727.03
2023-03-24T06:05:46.062Z,97722.78
2023-03-24T06:08:13.546Z,97719.59
2023-03-24T06:10:41.115Z,97716.22
2023-03-24T06:13:09.235Z,97717.34
2023-03-24T06:15:39.538Z,97709.72
2023-03-24T06:18:07.825Z,97712.13
2023-03-24T06:20:36.188Z,97718.78
2023-03-24T06:23:03.401Z,97728.59
2023-03-24T06:25:30.189Z,97725.22
2023-03-24T06:28:03.992Z,97718.16
2023-03-24T06:30:31.004Z,97719.75
2023-03-24T06:32:58.317Z,97701.00
2023-03-24T06:35:25.163Z,97706.59
2023-03-24T06:37:51.829Z,97700.00
2023-03-24T06:40:19.660Z,97702.41
2023-03-24T06:42:46.426Z,97695.84
2023-03-24T06:45:13.161Z,97694.56
2023-03-24T06:47:39.820Z,97698.72
2023-03-24T06:50:07.260Z,97701.63
2023-03-24T06:52:34.584Z,97693.19
2023-03-24T06:55:01.747Z,97696.41
2023-03-24T06:57:28.940Z,97693.25
2023-03-24T06:59:56.238Z,97693.31
2023-03-24T07:02:23.740Z,97690.44
2023-03-24T07:04:50.603Z,97696.38
2023-03-24T07:09:47.014Z,97693.22
2023-03-24T07:12:14.867Z,97702.59
2023-03-24T07:14:41.638Z,97709.03
2023-03-24T07:17:08.214Z,97696.91
2023-03-24T07:19:34.851Z,97703.25
2023-03-24T07:22:01.519Z,97695.94
2023-03-24T07:24:30.589Z,97700.09
2023-03-24T07:26:58.349Z,97691.59
2023-03-24T07:29:30.285Z,97688.44
2023-03-24T07:32:01.000Z,97692.47
2023-03-24T07:34:28.761Z,97691.91
2023-03-24T07:36:56.111Z,97691.63
2023-03-24T07:39:23.087Z,97696.34
2023-03-24T07:41:49.794Z,97700.97
2023-03-24T07:44:16.707Z,97698.09
2023-03-24T07:46:43.386Z,97710.97
2023-03-24T07:49:19.007Z,97713.50
2023-03-24T07:51:46.666Z,97722.81
2023-03-24T07:54:13.469Z,97704.66
2023-03-24T07:56:40.526Z,97711.81
2023-03-24T07:59:07.825Z,97705.72
2023-03-24T08:01:36.956Z,97698.09
2023-03-24T08:04:06.402Z,97689.38
2023-03-24T08:06:33.262Z,97692.88
2023-03-24T08:08:59.957Z,97698.53
2023-03-24T08:11:26.615Z,97705.78
2023-03-24T08:13:53.261Z,97711.78
2023-03-24T08:16:19.957Z,97708.88
2023-03-24T08:18:46.666Z,97706.56
2023-03-24T08:21:13.292Z,97709.22
2023-03-24T08:23:39.942Z,97714.63
2023-03-24T08:26:07.290Z,97703.28
2023-03-24T08:28:34.072Z,97708.47
2023-03-24T08:31:00.818Z,97702.66
2023-03-24T08:33:27.554Z,97697.44
2023-03-24T08:35:57.631Z,97699.88
2023-03-24T08:38:30.745Z,97684.22
2023-03-24T08:41:02.038Z,97696.50
2023-03-24T08:43:30.750Z,97700.56
2023-03-24T08:45:58.826Z,97691.31
2023-03-24T08:48:26.023Z,97696.94
2023-03-24T08:50:53.048Z,97692.19
2023-03-24T08:53:19.889Z,97678.34
2023-03-24T08:55:47.015Z,97693.56
2023-03-24T08:58:17.297Z,97675.19
2023-03-24T09:00:45.316Z,97671.47
2023-03-24T09:03:22.266Z,97668.56
2023-03-24T09:05:50.358Z,97674.19
2023-03-24T09:08:19.001Z,97661.16
2023-03-24T09:10:47.035Z,97649.97
2023-03-24T09:13:14.003Z,97650.81
2023-03-24T09:15:46.322Z,97652.41
2023-03-24T09:18:13.359Z,97652.69
2023-03-24T09:20:40.011Z,97638.81
2023-03-24T09:23:06.650Z,97634.28
2023-03-24T09:25:33.298Z,97631.88
2023-03-24T09:28:00.873Z,97638.50
2023-03-24T09:30:29.255Z,97633.97
2023-03-24T09:32:59.055Z,97640.06
2023-03-24T09:35:27.706Z,97629.63
2023-03-24T09:37:56.032Z,97627.72
2023-03-24T09:40:26.459Z,97628.75
2023-03-24T09:43:02.334Z,97624.97
2023-03-24T09:45:33.017Z,97633.25
2023-03-24T09:48:07.901Z,97635.06
2023-03-24T09:50:43.216Z,97644.63
2023-03-24T09:53:29.797Z,97643.03
2023-03-24T09:56:03.886Z,97657.72
2023-03-24T09:58:33.591Z,97667.28
2023-03-24T10:01:00.513Z,97660.84
2023-03-24T10:03:27.200Z,97670.94
2023-03-24T10:06:01.862Z,97666.16
2023-03-24T10:08:38.253Z,97661.38
2023-03-24T10:11:05.062Z,97661.06
2023-03-24T10:13:46.951Z,97655.19
2023-03-24T10:16:34.150Z,97660.28
2023-03-24T10:19:16.148Z,97659.13
2023-03-24T10:21:55.004Z,97671.00
2023-03-24T10:24:32.714Z,97667.44
2023-03-24T10:27:15.611Z,97667.41
2023-03-24T10:29:45.972Z,97658.81
2023-03-24T10:32:20.804Z,97677.53
2023-03-24T10:34:52.457Z,97671.41
2023-03-24T10:37:19.723Z,97673.81
2023-03-24T10:39:46.535Z,97676.69
2023-03-24T10:42:18.320Z,97681.56
2023-03-24T10:44:48.322Z,97675.16
2023-03-24T10:47:23.134Z,97679.59
2023-03-24T10:50:00.970Z,97683.38
2023-03-24T10:52:42.142Z,97691.69
2023-03-24T10:55:16.831Z,97698.75
2023-03-24T10:57:48.438Z,97705.75
2023-03-24T11:00:29.685Z,97714.94
2023-03-24T11:03:00.130Z,97709.28
2023-03-24T11:05:30.880Z,97703.63
2023-03-24T11:08:12.297Z,97707.69
2023-03-24T11:10:39.333Z,97714.19
2023-03-24T11:13:18.937Z,97709.59
2023-03-24T11:15:56.899Z,97708.72
2023-03-24T11:18:23.575Z,97717.28
2023-03-24T11:20:53.897Z,97719.00
2023-03-24T11:23:25.161Z,97708.28
2023-03-24T11:26:15.992Z,97719.19
2023-03-24T11:28:52.241Z,97725.22
2023-03-24T11:31:30.628Z,97720.97
2023-03-24T11:34:12.643Z,97723.19
2023-03-24T11:36:45.443Z,97724.44
2023-03-24T11:39:17.927Z,97728.03
2023-03-24T11:41:51.520Z,97723.47
2023-03-24T11:44:22.495Z,97729.72
2023-03-24T11:46:59.757Z,97731.50
2023-03-24T11:49:30.462Z,97731.03
2023-03-24T11:51:58.053Z,97728.41
2023-03-24T11:54:32.443Z,97723.78
2023-03-24T11:57:04.907Z,97733.38
2023-03-24T11:59:40.293Z,97743.25
2023-03-24T12:02:07.957Z,97735.84
2023-03-24T12:04:49.730Z,97738.84
2023-03-24T12:07:31.635Z,97736.44
2023-03-24T12:10:18.701Z,97734.63
2023-03-24T12:13:00.160Z,97737.94
2023-03-24T12:15:33.355Z,97744.44
2023-03-24T12:18:39.771Z,97732.69
2023-03-24T12:21:22.763Z,97743.03
2023-03-24T12:23:58.209Z,97731.34
2023-03-24T12:26:28.340Z,97738.84
2023-03-24T12:29:26.646Z,97730.41
2023-03-24T12:32:08.656Z,97750.88
2023-03-24T12:34:52.905Z,97742.72
2023-03-24T12:37:34.853Z,97750.72
2023-03-24T12:40:33.067Z,97756.16
2023-03-24T12:43:10.474Z,97755.41
2023-03-24T12:45:54.365Z,97769.88
2023-03-24T12:48:52.184Z,97763.25
2023-03-24T12:51:29.120Z,97772.09
2023-03-24T12:54:19.134Z,97786.06
2023-03-24T12:56:50.871Z,97778.63
2023-03-24T12:59:28.952Z,97782.44
2023-03-24T13:02:09.694Z,97772.34
2023-03-24T13:04:43.021Z,97778.81
2023-03-24T13:07:14.613Z,97776.41
2023-03-24T13:09:47.083Z,97772.41
2023-03-24T13:12:18.675Z,97774.31
2023-03-24T13:15:13.772Z,97772.47
2023-03-24T13:17:48.024Z,97777.31
2023-03-24T13:20:25.398Z,97774.38
2023-03-24T13:22:52.209Z,97778.09
2023-03-24T13:25:35.479Z,97777.56
2023-03-24T13:28:10.237Z,97778.41
2023-03-24T13:30:40.802Z,97782.16
2023-03-24T13:33:16.242Z,97789.13
2023-03-24T13:36:06.154Z,97774.44
2023-03-24T13:38:43.457Z,97770.69
2023-03-24T13:41:17.841Z,97778.69
2023-03-24T13:43:51.902Z,97778.19
2023-03-24T13:46:19.133Z,97774.72
2023-03-24T13:48:52.005Z,97766.97
2023-03-24T13:51:27.488Z,97761.63
2023-03-24T13:53:56.152Z,97772.56
2023-03-24T13:56:25.321Z,97783.50
2023-03-24T13:59:11.977Z,97782.47
2023-03-24T14:01:39.971Z,97775.00
2023-03-24T14:04:28.677Z,97767.00
2023-03-24T14:06:57.361Z,97761.66
2023-03-24T14:09:26.753Z,97755.56
2023-03-24T14:12:15.920Z,97753.94
2023-03-24T14:15:13.123Z,97751.00
2023-03-24T14:17:44.090Z,97751.00
2023-03-24T14:20:14.823Z,97743.00
2023-03-24T14:22:48.411Z,97745.94
2023-03-24T14:25:15.069Z,97727.28
2023-03-24T14:27:44.191Z,97718.75
2023-03-24T14:30:11.841Z,97722.50
2023-03-24T14:32:48.891Z,97712.09
2023-03-24T14:35:26.612Z,97699.03
2023-03-24T14:37:57.468Z,97701.44
2023-03-24T14:40:29.720Z,97701.72
2023-03-24T14:43:04.919Z,97705.44
2023-03-24T14:46:02.317Z,97737.94
2023-03-24T14:48:33.157Z,97729.69
2023-03-24T14:51:06.268Z,97709.41
2023-03-24T14:53:36.674Z,97692.09
2023-03-24T14:56:05.164Z,97678.53
2023-03-24T14:58:39.001Z,97664.34
2023-03-24T15:01:08.122Z,97668.63
2023-03-24T15:03:39.952Z,97663.84
2023-03-24T15:06:24.115Z,97651.84
2023-03-24T15:08:52.181Z,97632.91
2023-03-24T15:11:24.402Z,97622.53
2023-03-24T15:13:53.420Z,97618.03
2023-03-24T15:16:27.041Z,97625.75
2023-03-24T15:21:29.740Z,97629.75
2023-03-24T15:23:58.348Z,97639.34
2023-03-24T15:26:25.508Z,97639.59
2023-03-24T15:28:57.342Z,97634.53
2023-03-24T15:31:25.721Z,97655.31
2023-03-24T15:33:53.288Z,97669.13
2023-03-24T15:36:22.986Z,97663.31
2023-03-24T15:38:52.847Z,97666.22
2023-03-24T15:41:22.879Z,97645.44
2023-03-24T15:43:53.124Z,97638.53
2023-03-24T15:46:27.945Z,97622.56
2023-03-24T15:48:57.593Z,97609.25
2023-03-24T15:51:46.218Z,97604.19
2023-03-24T15:54:22.074Z,97608.19
2023-03-24T15:57:03.966Z,97609.25
2023-03-24T15:59:37.058Z,97606.06
2023-03-24T16:02:10.597Z,97603.41
2023-03-24T16:04:38.443Z,97594.09
2023-03-24T16:07:05.196Z,97596.72
2023-03-24T16:09:38.959Z,97587.69
2023-03-24T16:12:10.764Z,97589.31
2023-03-24T16:14:38.851Z,97585.56
2023-03-24T16:17:05.836Z,97584.22
2023-03-24T16:19:33.038Z,97600.19
2023-03-24T16:21:59.977Z,97593.53
2023-03-24T16:24:26.871Z,97593.28
2023-03-24T16:26:53.517Z,97592.22
2023-03-24T16:29:22.874Z,97594.31
2023-03-24T16:31:55.537Z,97594.34
2023-03-24T16:34:22.954Z,97597.50
2023-03-24T16:36:51.843Z,97599.66
2023-03-24T16:39:22.824Z,97604.72
2023-03-24T16:41:49.480Z,97610.31
2023-03-24T16:44:17.485Z,97610.03
2023-03-24T16:46:46.868Z,97611.63
2023-03-24T16:49:16.480Z,97613.25
2023-03-24T16:51:44.227Z,97608.44
2023-03-24T16:54:11.175Z,97611.88
2023-03-24T16:56:39.247Z,97616.41
2023-03-24T16:59:06.512Z,97616.94
2023-03-24T17:01:43.162Z,97616.94
2023-03-24T17:04:16.377Z,97606.81
2023-03-24T17:06:50.837Z,97608.97
2023-03-24T17:09:17.784Z,97604.16
2023-03-24T17:11:46.274Z,97600.94
2023-03-24T17:14:12.948Z,97596.16
2023-03-24T17:16:43.712Z,97602.53
2023-03-24T17:19:13.464Z,97602.78
2023-03-24T17:21:47.364Z,97618.75
2023-03-24T17:24:24.275Z,97615.56
2023-03-24T17:26:51.264Z,97630.97
2023-03-24T17:29:17.926Z,97638.16
2023-03-24T17:31:44.667Z,97637.88
2023-03-24T17:34:21.745Z,97638.16
2023-03-24T17:36:50.684Z,97642.41
2023-03-24T17:39:18.631Z,97641.31
2023-03-24T17:41:45.628Z,97657.75
2023-03-24T17:44:15.816Z,97659.91
2023-03-24T17:46:42.644Z,97659.88
2023-03-24T17:49:09.355Z,97654.53
2023-03-24T17:51:36.244Z,97659.53
2023-03-24T17:54:04.169Z,97667.00
2023-03-24T17:56:31.159Z,97676.72
2023-03-24T17:58:59.176Z,97681.38
2023-03-24T18:01:29.095Z,97680.84
2023-03-24T18:03:57.147Z,97688.81
2023-03-24T18:06:23.981Z,97693.31
2023-03-24T18:08:51.820Z,97697.03
2023-03-24T18:11:18.455Z,97692.50
2023-03-24T18:13:45.310Z,97693.56
2023-03-24T18:16:20.703Z,97689.06
2023-03-24T18:18:50.243Z,97692.78
2023-03-24T18:21:17.623Z,97700.97
2023-03-24T18:23:46.387Z,97704.88
2023-03-24T18:26:14.614Z,97707.50
2023-03-24T18:28:42.430Z,97709.63
2023-03-24T18:31:12.876Z,97712.84
2023-03-24T18:33:42.792Z,97717.91
2023-03-24T18:36:10.441Z,97720.44
2023-03-24T18:38:37.333Z,97725.38
2023-03-24T18:41:07.304Z,97735.59
2023-03-24T18:43:37.583Z,97740.19
2023-03-24T18:46:09.309Z,97747.19
2023-03-24T18:48:38.166Z,97754.91
2023-03-24T18:51:05.764Z,97752.03
2023-03-24T18:53:34.514Z,97755.00
2023-03-24T18:56:11.067Z,97770.72
2023-03-24T18:58:38.340Z,97767.00
2023-03-24T19:01:09.264Z,97769.13
2023-03-24T19:03:38.265Z,97766.44
2023-03-24T19:06:07.137Z,97757.34
2023-03-24T19:08:36.015Z,97746.44
2023-03-24T19:11:03.031Z,97769.84
2023-03-24T19:13:30.762Z,97748.56
2023-03-24T19:15:57.416Z,97755.94
2023-03-24T19:18:24.785Z,97753.41
2023-03-24T19:20:56.065Z,97753.13
2023-03-24T19:23:24.050Z,97757.59
2023-03-24T19:25:54.822Z,97770.63
2023-03-24T19:28:22.806Z,97758.06
2023-03-24T19:30:49.563Z,97752.97
2023-03-24T19:33:16.582Z,97729.50
2023-03-24T19:35:46.505Z,97734.03
2023-03-24T19:38:13.206Z,97724.44
2023-03-24T19:40:42.161Z,97763.72
2023-03-24T19:43:09.203Z,97774.84
2023-03-24T19:45:36.386Z,97769.72
2023-03-24T19:48:03.129Z,97780.66
2023-03-24T19:50:29.857Z,97787.03
2023-03-24T19:52:56.516Z,97794.19
2023-03-24T19:55:23.248Z,97794.38
2023-03-24T19:57:49.865Z,97794.38
2023-03-24T20:00:16.721Z,97758.72
2023-03-24T20:02:43.589Z,97744.34
2023-03-24T20:05:10.679Z,97752.03
2023-03-24T20:07:37.604Z,97749.31
2023-03-24T20:10:04.514Z,97747.97
2023-03-24T20:12:32.247Z,97722.41
2023-03-24T20:14:58.934Z,97725.78
2023-03-24T20:17:28.541Z,97739.03
2023-03-24T20:19:56.032Z,97753.56
2023-03-24T20:22:23.137Z,97771.28
2023-03-24T20:24:50.250Z,97774.69
2023-03-24T20:27:17.235Z,97764.88
2023-03-24T20:29:45.855Z,97763.78
2023-03-24T20:32:13.225Z,97763.47
2023-03-24T20:34:39.967Z,97746.44
2023-03-24T20:37:07.262Z,97749.94
2023-03-24T20:39:34.417Z,97770.59
2023-03-24T20:42:01.382Z,97794.19
2023-03-24T20:44:28.514Z,97800.03
2023-03-24T20:46:57.155Z,97807.47
2023-03-24T20:49:25.923Z,97800.03
2023-03-24T20:51:53.329Z,97797.81
2023-03-24T20:54:21.190Z,97813.13
2023-03-24T20:56:49.915Z,97811.47
2023-03-24T20:59:17.057Z,97806.53
2023-03-24T21:01:43.769Z,97799.22
2023-03-24T21:04:10.514Z,97794.38
2023-03-24T21:06:38.606Z,97803.44
2023-03-24T21:09:05.747Z,97804.66
2023-03-24T21:11:32.946Z,97811.25
2023-03-24T21:14:00.218Z,97802.56
2023-03-24T21:16:27.106Z,97799.59
2023-03-24T21:18:55.980Z,97793.56
2023-03-24T21:21:22.839Z,97802.56
2023-03-24T21:23:52.723Z,97797.72
2023-03-24T21:26:20.512Z,97794.53
2023-03-24T21:28:47.224Z,97801.13
2023-03-24T21:31:18.950Z,97796.41
2023-03-24T21:33:46.115Z,97809.09
2023-03-24T21:36:13.599Z,97801.56
2023-03-24T21:38:40.950Z,97804.09
2023-03-24T21:41:08.589Z,97810.63
2023-03-24T21:43:35.945Z,97809.00
2023-03-24T21:46:06.786Z,97806.69
2023-03-24T21:48:34.909Z,97803.09
2023-03-24T21:51:03.857Z,97802.59
2023-03-24T21:53:30.688Z,97799.38
2023-03-24T21:56:06.718Z,97806.97
2023-03-24T21:58:34.843Z,97816.03
2023-03-24T22:01:02.231Z,97820.47
2023-03-24T22:03:30.376Z,97818.50
2023-03-24T22:05:57.403Z,97810.97
2023-03-24T22:08:26.834Z,97815.00
2023-03-24T22:10:58.202Z,97811.94
2023-03-24T22:13:26.475Z,97809.16
2023-03-24T22:15:55.755Z,97816.59
2023-03-24T22:18:25.149Z,97806.13
2023-03-24T22:21:03.152Z,97793.44
2023-03-24T22:23:33.279Z,97795.53
2023-03-24T22:26:02.480Z,97807.88
2023-03-24T22:28:29.562Z,97798.09
2023-03-24T22:31:01.919Z,97794.81
2023-03-24T22:33:29.272Z,97788.94
2023-03-24T22:35:57.720Z,97779.75
2023-03-24T22:38:25.252Z,97777.38
2023-03-24T22:40:56.248Z,97786.69
2023-03-24T22:43:23.607Z,97793.63
2023-03-24T22:45:50.378Z,97797.28
2023-03-24T22:48:17.214Z,97805.66
2023-03-24T22:50:43.913Z,97797.38
2023-03-24T22:53:10.903Z,97797.13
2023-03-24T22:55:38.027Z,97773.78
2023-03-24T22:58:05.216Z,97792.66
2023-03-24T23:00:32.278Z,97792.00
2023-03-24T23:02:59.044Z,97795.72
2023-03-24T23:05:25.883Z,97802.22
2023-03-24T23:07:52.563Z,97802.50
2023-03-24T23:10:19.651Z,97806.22
2023-03-24T23:12:46.339Z,97809.34
2023-03-24T23:15:14.218Z,97813.94
2023-03-24T23:17:43.129Z,97815.69
2023-03-24T23:20:12.142Z,97817.88
2023-03-24T23:22:39.057Z,97823.00
2023-03-24T23:25:07.118Z,97823.94
2023-03-24T23:27:37.044Z,97819.16
2023-03-24T23:30:07.079Z,97814.25
2023-03-24T23:32:35.637Z,97810.78
2023-03-24T23:35:03.665Z,97813.34
2023-03-24T23:37:32.616Z,97826.84
2023-03-24T23:40:09.550Z,97821.13
2023-03-24T23:42:37.284Z,97834.38
2023-03-24T23:45:05.490Z,97825.06
2023-03-24T23:47:33.552Z,97827.44
2023-03-24T23:50:01.550Z,97832.56
2023-03-24T23:52:28.744Z,97827.09
2023-03-24T23:54:56.274Z,97827.44
2023-03-24T23:57:22.988Z,97834.97
2023-03-24T23:59:52.962Z,97820.03
